sensor_id;sensor_type;location;lat;lon;timestamp;pressure;altitude;pressure_sealevel;temperature;humidity
78673;BME280;67988;60.086;30.354;2023-03-14T00:02:25;98777.56;;;-1.27;75.88
78673;BME280;67988;60.086;30.354;2023-03-14T00:04:54;98748.41;;;-1.33;75.88
78673;BME280;67988;60.086;30.354;2023-03-14T00:07:21;98752.03;;;-1.21;75.71
78673;BME280;67988;60.086;30.354;2023-03-14T00:09:50;98751.66;;;-1.15;75.54
78673;BME280;67988;60.086;30.354;2023-03-14T00:12:18;98742.31;;;-1.19;75.67
78673;BME280;67988;60.086;30.354;2023-03-14T00:14:45;98729.75;;;-1.13;75.38
78673;BME280;67988;60.086;30.354;2023-03-14T00:17:12;98727.88;;;-1.11;75.22
78673;BME280;67988;60.086;30.354;2023-03-14T00:19:39;98727.78;;;-1.09;75.10
78673;BME280;67988;60.086;30.354;2023-03-14T00:22:07;98714.75;;;-1.09;75.37
78673;BME280;67988;60.086;30.354;2023-03-14T00:24:34;98714.47;;;-1.05;75.26
78673;BME280;67988;60.086;30.354;2023-03-14T00:27:01;98705.25;;;-1.10;75.67
78673;BME280;67988;60.086;30.354;2023-03-14T00:29:29;98700.47;;;-1.04;75.71
78673;BME280;67988;60.086;30.354;2023-03-14T00:31:56;98679.31;;;-0.99;75.04
78673;BME280;67988;60.086;30.354;2023-03-14T00:34:28;98645.50;;;-1.15;74.90
78673;BME280;67988;60.086;30.354;2023-03-14T00:36:55;98671.09;;;-0.93;75.12
78673;BME280;67988;60.086;30.354;2023-03-14T00:39:22;98673.56;;;-0.92;75.00
78673;BME280;67988;60.086;30.354;2023-03-14T00:41:50;98644.78;;;-0.90;75.12
78673;BME280;67988;60.086;30.354;2023-03-14T00:44:17;98645.22;;;-0.83;74.97
78673;BME280;67988;60.086;30.354;2023-03-14T00:46:45;98600.19;;;-0.87;74.93
78673;BME280;67988;60.086;30.354;2023-03-14T00:49:12;98627.03;;;-0.85;75.03
78673;BME280;67988;60.086;30.354;2023-03-14T00:51:41;98592.16;;;-0.84;74.78
78673;BME280;67988;60.086;30.354;2023-03-14T00:54:08;98596.44;;;-0.83;74.68
78673;BME280;67988;60.086;30.354;2023-03-14T00:56:35;98562.38;;;-0.81;74.89
78673;BME280;67988;60.086;30.354;2023-03-14T00:59:02;98552.59;;;-0.78;74.59
78673;BME280;67988;60.086;30.354;2023-03-14T01:01:29;98586.25;;;-0.73;74.56
78673;BME280;67988;60.086;30.354;2023-03-14T01:03:57;98549.91;;;-0.64;74.15
78673;BME280;67988;60.086;30.354;2023-03-14T01:06:26;98532.16;;;-0.71;74.51
78673;BME280;67988;60.086;30.354;2023-03-14T01:08:54;98546.97;;;-0.72;74.88
78673;BME280;67988;60.086;30.354;2023-03-14T01:11:23;98525.69;;;-0.66;74.60
78673;BME280;67988;60.086;30.354;2023-03-14T01:13:51;98508.34;;;-0.67;74.84
78673;BME280;67988;60.086;30.354;2023-03-14T01:16:21;98507.78;;;-0.59;74.65
78673;BME280;67988;60.086;30.354;2023-03-14T01:18:49;98493.72;;;-0.57;74.56
78673;BME280;67988;60.086;30.354;2023-03-14T01:21:18;98505.50;;;-0.51;74.40
78673;BME280;67988;60.086;30.354;2023-03-14T01:23:46;98503.22;;;-0.56;74.53
78673;BME280;67988;60.086;30.354;2023-03-14T01:26:16;98520.13;;;-0.61;74.65
78673;BME280;67988;60.086;30.354;2023-03-14T01:28:45;98486.72;;;-0.56;74.94
78673;BME280;67988;60.086;30.354;2023-03-14T01:31:13;98491.63;;;-0.52;74.97
78673;BME280;67988;60.086;30.354;2023-03-14T01:33:41;98494.84;;;-0.48;74.92
78673;BME280;67988;60.086;30.354;2023-03-14T01:36:10;98486.91;;;-0.47;75.02
78673;BME280;67988;60.086;30.354;2023-03-14T01:38:39;98456.59;;;-0.49;75.19
78673;BME280;67988;60.086;30.354;2023-03-14T01:41:13;98471.75;;;-0.42;74.97
78673;BME280;67988;60.086;30.354;2023-03-14T01:43:42;98465.50;;;-0.39;75.02
78673;BME280;67988;60.086;30.354;2023-03-14T01:46:19;98458.91;;;-0.45;75.52
78673;BME280;67988;60.086;30.354;2023-03-14T01:48:55;98441.66;;;-0.47;75.49
78673;BME280;67988;60.086;30.354;2023-03-14T01:51:28;98450.75;;;-0.53;76.36
78673;BME280;67988;60.086;30.354;2023-03-14T01:54:06;98446.16;;;-0.49;76.30
78673;BME280;67988;60.086;30.354;2023-03-14T01:56:35;98440.00;;;-0.48;77.11
78673;BME280;67988;60.086;30.354;2023-03-14T01:59:06;98423.59;;;-0.50;76.90
78673;BME280;67988;60.086;30.354;2023-03-14T02:01:35;98444.47;;;-0.37;76.71
78673;BME280;67988;60.086;30.354;2023-03-14T02:04:04;98417.50;;;-0.38;76.62
78673;BME280;67988;60.086;30.354;2023-03-14T02:06:39;98414.38;;;-0.43;77.09
78673;BME280;67988;60.086;30.354;2023-03-14T02:09:08;98418.03;;;-0.33;76.98
78673;BME280;67988;60.086;30.354;2023-03-14T02:11:35;98405.59;;;-0.29;77.16
78673;BME280;67988;60.086;30.354;2023-03-14T02:14:07;98395.97;;;-0.29;76.87
78673;BME280;67988;60.086;30.354;2023-03-14T02:17:07;98379.63;;;-0.20;76.13
78673;BME280;67988;60.086;30.354;2023-03-14T02:20:05;98367.56;;;-0.10;76.30
78673;BME280;67988;60.086;30.354;2023-03-14T02:22:40;98374.91;;;-0.15;76.20
78673;BME280;67988;60.086;30.354;2023-03-14T02:25:14;98365.69;;;-0.08;75.98
78673;BME280;67988;60.086;30.354;2023-03-14T02:27:46;98344.28;;;-0.13;75.79
78673;BME280;67988;60.086;30.354;2023-03-14T02:30:16;98361.56;;;0.01;75.63
78673;BME280;67988;60.086;30.354;2023-03-14T02:32:47;98356.84;;;0.06;75.62
78673;BME280;67988;60.086;30.354;2023-03-14T02:35:18;98360.28;;;0.07;75.47
78673;BME280;67988;60.086;30.354;2023-03-14T02:37:51;98367.28;;;0.06;75.46
78673;BME280;67988;60.086;30.354;2023-03-14T02:40:21;98337.75;;;0.17;75.47
78673;BME280;67988;60.086;30.354;2023-03-14T02:42:52;98319.84;;;0.23;75.26
78673;BME280;67988;60.086;30.354;2023-03-14T02:45:36;98339.06;;;0.22;75.38
78673;BME280;67988;60.086;30.354;2023-03-14T02:48:07;98277.94;;;0.12;75.02
78673;BME280;67988;60.086;30.354;2023-03-14T02:50:37;98324.44;;;0.44;74.90
78673;BME280;67988;60.086;30.354;2023-03-14T02:53:05;98320.00;;;0.44;75.38
78673;BME280;67988;60.086;30.354;2023-03-14T02:55:32;98332.53;;;0.52;74.88
78673;BME280;67988;60.086;30.354;2023-03-14T02:58:06;98328.25;;;0.51;75.43
78673;BME280;67988;60.086;30.354;2023-03-14T03:00:33;98333.38;;;0.52;75.50
78673;BME280;67988;60.086;30.354;2023-03-14T03:03:03;98305.91;;;0.58;75.42
78673;BME280;67988;60.086;30.354;2023-03-14T03:05:31;98295.66;;;0.44;75.53
78673;BME280;67988;60.086;30.354;2023-03-14T03:07:59;98308.28;;;0.61;76.01
78673;BME280;67988;60.086;30.354;2023-03-14T03:10:27;98268.88;;;0.40;76.28
78673;BME280;67988;60.086;30.354;2023-03-14T03:12:54;98281.44;;;0.70;76.14
78673;BME280;67988;60.086;30.354;2023-03-14T03:15:25;98283.78;;;0.73;76.12
78673;BME280;67988;60.086;30.354;2023-03-14T03:17:53;98269.28;;;0.80;76.13
78673;BME280;67988;60.086;30.354;2023-03-14T03:20:19;98271.06;;;0.79;76.24
78673;BME280;67988;60.086;30.354;2023-03-14T03:22:46;98275.72;;;0.76;76.92
78673;BME280;67988;60.086;30.354;2023-03-14T03:25:15;98254.28;;;0.82;76.93
78673;BME280;67988;60.086;30.354;2023-03-14T03:27:44;98253.97;;;0.87;76.99
78673;BME280;67988;60.086;30.354;2023-03-14T03:30:14;98252.41;;;0.95;76.69
78673;BME280;67988;60.086;30.354;2023-03-14T03:32:42;98218.47;;;0.82;77.20
78673;BME280;67988;60.086;30.354;2023-03-14T03:35:11;98237.16;;;1.00;77.08
78673;BME280;67988;60.086;30.354;2023-03-14T03:37:39;98266.31;;;0.96;77.89
78673;BME280;67988;60.086;30.354;2023-03-14T03:40:07;98236.22;;;1.01;77.78
78673;BME280;67988;60.086;30.354;2023-03-14T03:42:35;98246.44;;;1.04;77.58
78673;BME280;67988;60.086;30.354;2023-03-14T03:45:06;98224.06;;;1.11;77.58
78673;BME280;67988;60.086;30.354;2023-03-14T03:47:37;98225.94;;;1.09;77.86
78673;BME280;67988;60.086;30.354;2023-03-14T03:50:07;98234.63;;;1.21;77.73
78673;BME280;67988;60.086;30.354;2023-03-14T03:52:34;98228.22;;;1.25;77.58
78673;BME280;67988;60.086;30.354;2023-03-14T03:55:02;98220.81;;;1.30;77.72
78673;BME280;67988;60.086;30.354;2023-03-14T03:57:28;98224.00;;;1.34;77.73
78673;BME280;67988;60.086;30.354;2023-03-14T03:59:56;98211.38;;;1.39;77.99
78673;BME280;67988;60.086;30.354;2023-03-14T04:02:23;98207.44;;;1.44;78.00
78673;BME280;67988;60.086;30.354;2023-03-14T04:04:50;98208.84;;;1.48;78.36
78673;BME280;67988;60.086;30.354;2023-03-14T04:07:19;98204.50;;;1.58;78.04
78673;BME280;67988;60.086;30.354;2023-03-14T04:09:46;98212.25;;;1.60;78.00
78673;BME280;67988;60.086;30.354;2023-03-14T04:12:35;98204.16;;;1.63;78.08
78673;BME280;67988;60.086;30.354;2023-03-14T04:15:17;98150.75;;;1.43;78.03
78673;BME280;67988;60.086;30.354;2023-03-14T04:17:47;98198.88;;;1.74;77.91
78673;BME280;67988;60.086;30.354;2023-03-14T04:20:15;98188.84;;;1.79;78.16
78673;BME280;67988;60.086;30.354;2023-03-14T04:22:43;98180.59;;;1.84;78.32
78673;BME280;67988;60.086;30.354;2023-03-14T04:25:11;98182.44;;;1.93;78.01
78673;BME280;67988;60.086;30.354;2023-03-14T04:27:43;98176.13;;;1.95;78.41
78673;BME280;67988;60.086;30.354;2023-03-14T04:30:18;98181.81;;;2.00;78.29
78673;BME280;67988;60.086;30.354;2023-03-14T04:32:54;98171.50;;;2.08;78.31
78673;BME280;67988;60.086;30.354;2023-03-14T04:35:24;98171.25;;;2.12;78.58
78673;BME280;67988;60.086;30.354;2023-03-14T04:37:57;98187.06;;;2.21;78.81
78673;BME280;67988;60.086;30.354;2023-03-14T04:40:25;98170.53;;;2.30;78.81
78673;BME280;67988;60.086;30.354;2023-03-14T04:42:57;98176.22;;;2.35;78.59
78673;BME280;67988;60.086;30.354;2023-03-14T04:45:24;98158.00;;;2.34;78.94
78673;BME280;67988;60.086;30.354;2023-03-14T04:47:51;98166.97;;;2.41;78.67
78673;BME280;67988;60.086;30.354;2023-03-14T04:50:19;98150.75;;;2.26;78.90
78673;BME280;67988;60.086;30.354;2023-03-14T04:52:47;98152.34;;;2.38;78.62
78673;BME280;67988;60.086;30.354;2023-03-14T04:55:16;98167.72;;;2.52;78.79
78673;BME280;67988;60.086;30.354;2023-03-14T04:57:43;98172.88;;;2.54;78.80
78673;BME280;67988;60.086;30.354;2023-03-14T05:00:11;98141.41;;;2.33;79.56
78673;BME280;67988;60.086;30.354;2023-03-14T05:02:54;98161.13;;;2.58;79.81
78673;BME280;67988;60.086;30.354;2023-03-14T05:05:50;98158.50;;;2.58;79.71
78673;BME280;67988;60.086;30.354;2023-03-14T05:08:46;98153.00;;;2.61;80.24
78673;BME280;67988;60.086;30.354;2023-03-14T05:11:35;98095.16;;;2.32;80.48
78673;BME280;67988;60.086;30.354;2023-03-14T05:14:22;98145.28;;;2.69;80.65
78673;BME280;67988;60.086;30.354;2023-03-14T05:17:08;98087.31;;;2.42;80.92
78673;BME280;67988;60.086;30.354;2023-03-14T05:19:46;98142.13;;;2.75;80.99
78673;BME280;67988;60.086;30.354;2023-03-14T05:22:51;98139.81;;;2.82;81.05
78673;BME280;67988;60.086;30.354;2023-03-14T05:25:43;98096.47;;;2.57;81.26
78673;BME280;67988;60.086;30.354;2023-03-14T05:28:17;98130.28;;;2.90;81.16
78673;BME280;67988;60.086;30.354;2023-03-14T05:31:06;98111.75;;;2.82;81.62
78673;BME280;67988;60.086;30.354;2023-03-14T05:33:59;98131.69;;;2.94;81.29
78673;BME280;67988;60.086;30.354;2023-03-14T05:36:38;98118.97;;;3.00;81.43
78673;BME280;67988;60.086;30.354;2023-03-14T05:39:17;98128.91;;;2.96;81.91
78673;BME280;67988;60.086;30.354;2023-03-14T05:42:10;98134.75;;;3.00;82.38
78673;BME280;67988;60.086;30.354;2023-03-14T05:44:55;98115.53;;;2.99;82.69
78673;BME280;67988;60.086;30.354;2023-03-14T05:47:41;98142.34;;;3.03;83.24
78673;BME280;67988;60.086;30.354;2023-03-14T05:50:20;98111.22;;;2.88;83.53
78673;BME280;67988;60.086;30.354;2023-03-14T05:52:55;98114.56;;;3.10;84.03
78673;BME280;67988;60.086;30.354;2023-03-14T05:55:55;98145.13;;;3.11;84.35
78673;BME280;67988;60.086;30.354;2023-03-14T05:58:45;98126.88;;;3.19;84.68
78673;BME280;67988;60.086;30.354;2023-03-14T06:01:34;98128.66;;;3.18;85.32
78673;BME280;67988;60.086;30.354;2023-03-14T06:04:10;98145.16;;;3.20;85.48
78673;BME280;67988;60.086;30.354;2023-03-14T06:06:38;98126.03;;;3.28;86.04
78673;BME280;67988;60.086;30.354;2023-03-14T06:09:06;98113.47;;;3.31;86.16
78673;BME280;67988;60.086;30.354;2023-03-14T06:11:36;98142.66;;;3.28;86.14
78673;BME280;67988;60.086;30.354;2023-03-14T06:14:04;98130.91;;;3.42;87.75
78673;BME280;67988;60.086;30.354;2023-03-14T06:16:31;98128.00;;;3.55;88.69
78673;BME280;67988;60.086;30.354;2023-03-14T06:19:00;98124.81;;;3.61;88.50
78673;BME280;67988;60.086;30.354;2023-03-14T06:21:28;98121.22;;;3.71;88.25
78673;BME280;67988;60.086;30.354;2023-03-14T06:23:56;98126.88;;;3.76;88.08
78673;BME280;67988;60.086;30.354;2023-03-14T06:26:24;98127.72;;;3.87;87.71
78673;BME280;67988;60.086;30.354;2023-03-14T06:28:51;98112.91;;;3.86;87.32
78673;BME280;67988;60.086;30.354;2023-03-14T06:31:19;98115.81;;;3.92;87.30
78673;BME280;67988;60.086;30.354;2023-03-14T06:33:57;98116.34;;;3.96;86.94
78673;BME280;67988;60.086;30.354;2023-03-14T06:36:30;98100.13;;;4.00;86.85
78673;BME280;67988;60.086;30.354;2023-03-14T06:38:57;98128.50;;;4.06;86.75
78673;BME280;67988;60.086;30.354;2023-03-14T06:41:26;98121.00;;;4.11;86.76
78673;BME280;67988;60.086;30.354;2023-03-14T06:43:53;98127.50;;;4.17;86.47
78673;BME280;67988;60.086;30.354;2023-03-14T06:46:20;98132.78;;;4.17;86.56
78673;BME280;67988;60.086;30.354;2023-03-14T06:48:47;98125.28;;;4.22;86.36
78673;BME280;67988;60.086;30.354;2023-03-14T06:51:15;98136.19;;;4.27;86.24
78673;BME280;67988;60.086;30.354;2023-03-14T06:53:43;98129.97;;;4.28;86.09
78673;BME280;67988;60.086;30.354;2023-03-14T06:56:13;98138.56;;;4.30;85.98
78673;BME280;67988;60.086;30.354;2023-03-14T06:58:41;98118.22;;;4.22;85.97
78673;BME280;67988;60.086;30.354;2023-03-14T07:01:18;98107.53;;;4.24;85.80
78673;BME280;67988;60.086;30.354;2023-03-14T07:03:46;98124.66;;;4.38;85.91
78673;BME280;67988;60.086;30.354;2023-03-14T07:06:13;98140.97;;;4.51;85.74
78673;BME280;67988;60.086;30.354;2023-03-14T07:08:40;98138.22;;;4.52;85.67
78673;BME280;67988;60.086;30.354;2023-03-14T07:11:09;98151.88;;;4.66;85.62
78673;BME280;67988;60.086;30.354;2023-03-14T07:13:37;98150.59;;;4.70;85.43
78673;BME280;67988;60.086;30.354;2023-03-14T07:16:07;98155.44;;;4.74;85.29
78673;BME280;67988;60.086;30.354;2023-03-14T07:18:35;98159.84;;;4.83;85.05
78673;BME280;67988;60.086;30.354;2023-03-14T07:21:04;98149.16;;;4.85;84.92
78673;BME280;67988;60.086;30.354;2023-03-14T07:23:32;98151.50;;;4.88;84.82
78673;BME280;67988;60.086;30.354;2023-03-14T07:25:58;98131.81;;;4.82;84.86
78673;BME280;67988;60.086;30.354;2023-03-14T07:28:27;98154.63;;;5.01;84.74
78673;BME280;67988;60.086;30.354;2023-03-14T07:31:00;98156.25;;;5.02;84.47
78673;BME280;67988;60.086;30.354;2023-03-14T07:33:31;98166.78;;;5.12;84.32
78673;BME280;67988;60.086;30.354;2023-03-14T07:35:58;98160.06;;;5.17;84.14
78673;BME280;67988;60.086;30.354;2023-03-14T07:38:25;98157.91;;;5.13;84.07
78673;BME280;67988;60.086;30.354;2023-03-14T07:41:13;98175.53;;;5.30;83.99
78673;BME280;67988;60.086;30.354;2023-03-14T07:44:02;98157.75;;;5.32;83.94
78673;BME280;67988;60.086;30.354;2023-03-14T07:46:29;98164.00;;;5.31;83.40
78673;BME280;67988;60.086;30.354;2023-03-14T07:48:56;98157.44;;;5.35;83.51
78673;BME280;67988;60.086;30.354;2023-03-14T07:51:23;98186.09;;;5.47;83.14
78673;BME280;67988;60.086;30.354;2023-03-14T07:53:50;98156.94;;;5.49;83.16
78673;BME280;67988;60.086;30.354;2023-03-14T07:56:17;98173.22;;;5.62;83.02
78673;BME280;67988;60.086;30.354;2023-03-14T07:58:44;98165.31;;;5.62;82.74
78673;BME280;67988;60.086;30.354;2023-03-14T08:01:12;98169.16;;;5.68;82.61
78673;BME280;67988;60.086;30.354;2023-03-14T08:03:39;98176.91;;;5.69;82.57
78673;BME280;67988;60.086;30.354;2023-03-14T08:06:06;98173.38;;;5.78;82.17
78673;BME280;67988;60.086;30.354;2023-03-14T08:08:33;98153.50;;;5.66;82.03
78673;BME280;67988;60.086;30.354;2023-03-14T08:11:04;98189.38;;;5.77;81.65
78673;BME280;67988;60.086;30.354;2023-03-14T08:13:34;98165.63;;;5.77;81.14
78673;BME280;67988;60.086;30.354;2023-03-14T08:16:01;98195.78;;;5.92;80.93
78673;BME280;67988;60.086;30.354;2023-03-14T08:18:29;98166.00;;;5.82;81.03
78673;BME280;67988;60.086;30.354;2023-03-14T08:20:56;98193.28;;;6.08;80.76
78673;BME280;67988;60.086;30.354;2023-03-14T08:23:24;98184.91;;;6.13;80.64
78673;BME280;67988;60.086;30.354;2023-03-14T08:25:51;98191.09;;;6.21;80.27
78673;BME280;67988;60.086;30.354;2023-03-14T08:28:18;98182.25;;;6.30;80.11
78673;BME280;67988;60.086;30.354;2023-03-14T08:30:45;98191.34;;;6.36;79.89
78673;BME280;67988;60.086;30.354;2023-03-14T08:33:13;98175.91;;;6.23;79.67
78673;BME280;67988;60.086;30.354;2023-03-14T08:35:41;98193.06;;;6.45;79.46
78673;BME280;67988;60.086;30.354;2023-03-14T08:38:08;98196.38;;;6.47;79.37
78673;BME280;67988;60.086;30.354;2023-03-14T08:40:36;98200.88;;;6.55;79.24
78673;BME280;67988;60.086;30.354;2023-03-14T08:43:02;98199.06;;;6.55;79.06
78673;BME280;67988;60.086;30.354;2023-03-14T08:45:29;98172.72;;;6.38;78.78
78673;BME280;67988;60.086;30.354;2023-03-14T08:47:57;98207.06;;;6.63;78.86
78673;BME280;67988;60.086;30.354;2023-03-14T08:50:24;98209.56;;;6.65;78.99
78673;BME280;67988;60.086;30.354;2023-03-14T08:52:52;98194.81;;;6.62;78.89
78673;BME280;67988;60.086;30.354;2023-03-14T08:55:19;98201.75;;;6.89;78.57
78673;BME280;67988;60.086;30.354;2023-03-14T08:57:46;98202.72;;;6.88;78.10
78673;BME280;67988;60.086;30.354;2023-03-14T09:00:14;98193.03;;;6.71;77.99
78673;BME280;67988;60.086;30.354;2023-03-14T09:02:42;98217.97;;;6.94;77.58
78673;BME280;67988;60.086;30.354;2023-03-14T09:05:10;98180.84;;;6.70;77.45
78673;BME280;67988;60.086;30.354;2023-03-14T09:07:37;98209.38;;;6.92;77.04
78673;BME280;67988;60.086;30.354;2023-03-14T09:10:07;98241.84;;;7.10;76.62
78673;BME280;67988;60.086;30.354;2023-03-14T09:12:34;98218.84;;;7.03;76.70
78673;BME280;67988;60.086;30.354;2023-03-14T09:15:02;98196.88;;;6.77;76.64
78673;BME280;67988;60.086;30.354;2023-03-14T09:17:29;98222.69;;;7.17;76.64
78673;BME280;67988;60.086;30.354;2023-03-14T09:19:56;98230.00;;;7.23;76.12
78673;BME280;67988;60.086;30.354;2023-03-14T09:22:24;98231.44;;;7.09;76.62
78673;BME280;67988;60.086;30.354;2023-03-14T09:24:51;98252.00;;;7.23;76.48
78673;BME280;67988;60.086;30.354;2023-03-14T09:27:19;98250.72;;;7.35;76.36
78673;BME280;67988;60.086;30.354;2023-03-14T09:29:46;98196.16;;;6.92;76.15
78673;BME280;67988;60.086;30.354;2023-03-14T09:32:13;98261.72;;;7.23;76.18
78673;BME280;67988;60.086;30.354;2023-03-14T09:34:40;98252.34;;;7.28;76.37
78673;BME280;67988;60.086;30.354;2023-03-14T09:37:07;98252.06;;;7.39;75.29
78673;BME280;67988;60.086;30.354;2023-03-14T09:39:34;98209.31;;;7.18;75.54
78673;BME280;67988;60.086;30.354;2023-03-14T09:42:02;98269.78;;;7.47;75.17
78673;BME280;67988;60.086;30.354;2023-03-14T09:44:34;98222.53;;;7.18;75.30
78673;BME280;67988;60.086;30.354;2023-03-14T09:47:04;98270.09;;;7.44;75.20
78673;BME280;67988;60.086;30.354;2023-03-14T09:49:33;98264.16;;;7.50;74.79
78673;BME280;67988;60.086;30.354;2023-03-14T09:52:04;98279.41;;;7.64;74.40
78673;BME280;67988;60.086;30.354;2023-03-14T09:54:35;98235.78;;;7.68;73.58
78673;BME280;67988;60.086;30.354;2023-03-14T09:57:04;98265.09;;;7.91;73.44
78673;BME280;67988;60.086;30.354;2023-03-14T09:59:34;98270.75;;;7.96;72.64
78673;BME280;67988;60.086;30.354;2023-03-14T10:02:13;98256.16;;;7.92;72.66
78673;BME280;67988;60.086;30.354;2023-03-14T10:04:41;98250.53;;;7.79;72.29
78673;BME280;67988;60.086;30.354;2023-03-14T10:07:13;98252.38;;;8.03;72.09
78673;BME280;67988;60.086;30.354;2023-03-14T10:09:43;98285.19;;;8.18;71.75
78673;BME280;67988;60.086;30.354;2023-03-14T10:12:10;98306.19;;;8.11;71.85
78673;BME280;67988;60.086;30.354;2023-03-14T10:14:46;98303.41;;;8.13;71.94
78673;BME280;67988;60.086;30.354;2023-03-14T10:17:14;98290.31;;;8.11;71.81
78673;BME280;67988;60.086;30.354;2023-03-14T10:19:54;98292.63;;;8.14;71.73
78673;BME280;67988;60.086;30.354;2023-03-14T10:22:23;98295.09;;;8.08;71.76
78673;BME280;67988;60.086;30.354;2023-03-14T10:24:54;98270.03;;;7.78;72.14
78673;BME280;67988;60.086;30.354;2023-03-14T10:27:28;98281.34;;;8.04;72.04
78673;BME280;67988;60.086;30.354;2023-03-14T10:29:58;98279.03;;;8.01;71.74
78673;BME280;67988;60.086;30.354;2023-03-14T10:32:32;98307.88;;;8.12;72.10
78673;BME280;67988;60.086;30.354;2023-03-14T10:35:14;98313.47;;;8.01;71.89
78673;BME280;67988;60.086;30.354;2023-03-14T10:37:50;98306.84;;;8.05;71.62
78673;BME280;67988;60.086;30.354;2023-03-14T10:40:18;98296.94;;;8.07;71.70
78673;BME280;67988;60.086;30.354;2023-03-14T10:42:45;98276.25;;;8.11;71.74
78673;BME280;67988;60.086;30.354;2023-03-14T10:45:36;98323.75;;;8.20;71.45
78673;BME280;67988;60.086;30.354;2023-03-14T10:48:18;98289.00;;;8.07;70.90
78673;BME280;67988;60.086;30.354;2023-03-14T10:50:53;98321.81;;;8.30;70.87
78673;BME280;67988;60.086;30.354;2023-03-14T10:53:21;98332.44;;;8.38;70.87
78673;BME280;67988;60.086;30.354;2023-03-14T10:55:48;98325.81;;;8.34;70.86
78673;BME280;67988;60.086;30.354;2023-03-14T10:58:24;98349.00;;;8.32;70.82
78673;BME280;67988;60.086;30.354;2023-03-14T11:01:00;98341.03;;;8.40;70.45
78673;BME280;67988;60.086;30.354;2023-03-14T11:03:31;98322.19;;;8.44;69.98
78673;BME280;67988;60.086;30.354;2023-03-14T11:06:05;98322.66;;;8.39;70.00
78673;BME280;67988;60.086;30.354;2023-03-14T11:08:43;98326.66;;;8.59;69.94
78673;BME280;67988;60.086;30.354;2023-03-14T11:11:17;98332.59;;;8.53;69.93
78673;BME280;67988;60.086;30.354;2023-03-14T11:13:56;98305.22;;;8.20;70.21
78673;BME280;67988;60.086;30.354;2023-03-14T11:16:33;98326.94;;;8.40;70.50
78673;BME280;67988;60.086;30.354;2023-03-14T11:19:26;98332.94;;;8.34;70.44
78673;BME280;67988;60.086;30.354;2023-03-14T11:21:59;98332.78;;;8.44;70.16
78673;BME280;67988;60.086;30.354;2023-03-14T11:24:39;98328.78;;;8.48;69.86
78673;BME280;67988;60.086;30.354;2023-03-14T11:27:16;98342.84;;;8.40;70.34
78673;BME280;67988;60.086;30.354;2023-03-14T11:29:51;98342.19;;;8.46;70.00
78673;BME280;67988;60.086;30.354;2023-03-14T11:32:35;98329.44;;;8.42;69.96
78673;BME280;67988;60.086;30.354;2023-03-14T11:35:08;98350.69;;;8.50;70.07
78673;BME280;67988;60.086;30.354;2023-03-14T11:37:44;98350.34;;;8.45;69.76
78673;BME280;67988;60.086;30.354;2023-03-14T11:40:14;98353.97;;;8.52;69.46
78673;BME280;67988;60.086;30.354;2023-03-14T11:42:47;98349.50;;;8.44;69.80
78673;BME280;67988;60.086;30.354;2023-03-14T11:45:18;98311.00;;;8.24;69.84
78673;BME280;67988;60.086;30.354;2023-03-14T11:47:53;98386.44;;;8.46;69.88
78673;BME280;67988;60.086;30.354;2023-03-14T11:50:23;98363.41;;;8.46;69.70
78673;BME280;67988;60.086;30.354;2023-03-14T11:52:54;98384.13;;;8.43;69.93
78673;BME280;67988;60.086;30.354;2023-03-14T11:55:27;98354.91;;;8.26;70.00
78673;BME280;67988;60.086;30.354;2023-03-14T11:57:59;98368.16;;;8.26;70.05
78673;BME280;67988;60.086;30.354;2023-03-14T12:00:28;98402.31;;;8.37;70.18
78673;BME280;67988;60.086;30.354;2023-03-14T12:03:02;98349.56;;;8.18;70.19
78673;BME280;67988;60.086;30.354;2023-03-14T12:05:43;98395.63;;;8.25;70.54
78673;BME280;67988;60.086;30.354;2023-03-14T12:08:29;98359.13;;;8.03;70.16
78673;BME280;67988;60.086;30.354;2023-03-14T12:11:01;98392.06;;;8.34;70.02
78673;BME280;67988;60.086;30.354;2023-03-14T12:13:32;98396.19;;;8.37;70.35
78673;BME280;67988;60.086;30.354;2023-03-14T12:16:03;98399.00;;;8.35;70.09
78673;BME280;67988;60.086;30.354;2023-03-14T12:18:34;98408.00;;;8.59;69.70
78673;BME280;67988;60.086;30.354;2023-03-14T12:21:06;98378.97;;;8.41;69.44
78673;BME280;67988;60.086;30.354;2023-03-14T12:23:36;98392.91;;;8.67;69.15
78673;BME280;67988;60.086;30.354;2023-03-14T12:26:13;98389.28;;;8.60;69.02
78673;BME280;67988;60.086;30.354;2023-03-14T12:28:43;98396.41;;;8.68;69.15
78673;BME280;67988;60.086;30.354;2023-03-14T12:31:37;98375.53;;;8.73;69.00
78673;BME280;67988;60.086;30.354;2023-03-14T12:34:26;98376.69;;;8.70;68.48
78673;BME280;67988;60.086;30.354;2023-03-14T12:37:04;98399.25;;;8.82;68.52
78673;BME280;67988;60.086;30.354;2023-03-14T12:39:43;98410.66;;;8.75;68.65
78673;BME280;67988;60.086;30.354;2023-03-14T12:42:19;98416.81;;;8.75;68.73
78673;BME280;67988;60.086;30.354;2023-03-14T12:44:49;98395.78;;;8.82;68.52
78673;BME280;67988;60.086;30.354;2023-03-14T12:47:49;98442.94;;;8.62;69.02
78673;BME280;67988;60.086;30.354;2023-03-14T12:50:26;98420.44;;;8.66;68.86
78673;BME280;67988;60.086;30.354;2023-03-14T12:53:13;98432.72;;;8.84;68.62
78673;BME280;67988;60.086;30.354;2023-03-14T12:55:45;98434.69;;;8.65;69.01
78673;BME280;67988;60.086;30.354;2023-03-14T12:58:17;98428.72;;;8.71;69.09
78673;BME280;67988;60.086;30.354;2023-03-14T13:00:51;98453.91;;;8.75;68.86
78673;BME280;67988;60.086;30.354;2023-03-14T13:03:21;98453.75;;;8.69;69.08
78673;BME280;67988;60.086;30.354;2023-03-14T13:05:55;98450.44;;;8.67;69.17
78673;BME280;67988;60.086;30.354;2023-03-14T13:08:36;98412.75;;;8.39;69.09
78673;BME280;67988;60.086;30.354;2023-03-14T13:11:06;98452.75;;;8.70;68.87
78673;BME280;67988;60.086;30.354;2023-03-14T13:13:40;98447.25;;;8.63;69.40
78673;BME280;67988;60.086;30.354;2023-03-14T13:16:14;98451.09;;;8.69;69.21
78673;BME280;67988;60.086;30.354;2023-03-14T13:18:42;98464.66;;;8.58;69.27
78673;BME280;67988;60.086;30.354;2023-03-14T13:21:13;98459.34;;;8.58;68.97
78673;BME280;67988;60.086;30.354;2023-03-14T13:23:55;98435.44;;;8.42;69.03